Time,TemperatureF,DewpointF,PressureIn,WindDirection,WindDirectionDegrees,WindSpeedMPH,WindSpeedGustMPH,Humidity,HourlyPrecipIn,Conditions,Clouds,dailyrainin,SoftwareType,DateUTC
2013-09-15 00:00:00,62.2,46.3,29.82,South,174,0.0,2.0,56,0.00,CLR,,0.00,WeatherDisplay:10.37,2013-09-15 05:00:00,
2013-09-15 00:05:00,62.2,45.8,29.82,South,173,1.0,2.0,55,0.00,CLR,,0.00,WeatherDisplay:10.37,2013-09-15 05:05:00,
2013-09-15 00:10:00,62.2,45.9,29.82,SSE,164,0.0,0.0,55,0.00,CLR,,0.00,WeatherDisplay:10.37,2013-09-15 05:10:00,
2013-09-15 00:20:00,62.2,45.4,29.82,South,172,0.0,3.0,54,0.00,CLR,,0.00,WeatherDisplay:10.37,2013-09-15 05:20:00,
2013-09-15 00:30:00,62.0,45.2,29.82,South,173,1.0,3.0,54,0.00,CLR,,0.00,WeatherDisplay:10.37,2013-09-15 05:30:00,
2013-09-15 00:40:00,62.0,45.1,29.82,South,176,0.0,2.0,54,0.00,CLR,,0.00,WeatherDisplay:10.37,2013-09-15 05:40:00,
2013-09-15 00:50:00,61.9,45.0,29.82,South,180,1.0,4.0,54,0.00,CLR,,0.00,WeatherDisplay:10.37,2013-09-15 05:50:00,
2013-09-15 01:00:00,61.6,44.3,29.82,South,170,0.0,3.0,53,0.00,CLR,,0.00,WeatherDisplay:10.37,2013-09-15 06:00:00,
2013-09-15 01:05:00,61.7,44.4,29.82,South,170,1.0,3.0,53,0.00,CLR,,0.00,WeatherDisplay:10.37,2013-09-15 06:05:00,
2013-09-15 01:10:00,61.5,44.2,29.81,South,179,0.0,3.0,53,0.00,CLR,,0.00,WeatherDisplay:10.37,2013-09-15 06:10:00,
2013-09-15 01:15:00,61.5,44.2,29.82,SSE,167,1.0,3.0,53,0.00,CLR,,0.00,WeatherDisplay:10.37,2013-09-15 06:15:00,
2013-09-15 01:20:00,61.5,44.2,29.81,South,169,0.0,3.0,53,0.00,CLR,,0.00,WeatherDisplay:10.37,2013-09-15 06:20:00,
2013-09-15 01:30:00,61.5,44.2,29.81,South,173,0.0,0.0,53,0.00,CLR,,0.00,WeatherDisplay:10.37,2013-09-15 06:30:00,
2013-09-15 01:40:00,61.5,44.2,29.81,SSE,167,0.0,3.0,53,0.00,CLR,,0.00,WeatherDisplay:10.37,2013-09-15 06:40:00,
2013-09-15 01:50:00,61.5,43.7,29.81,South,177,0.0,2.0,52,0.00,CLR,,0.00,WeatherDisplay:10.37,2013-09-15 06:50:00,
2013-09-15 02:00:00,61.7,43.9,29.82,South,180,0.0,0.0,52,0.00,CLR,,0.00,WeatherDisplay:10.37,2013-09-15 07:00:00,
2013-09-15 02:05:00,61.7,43.9,29.82,South,182,0.0,2.0,52,0.00,CLR,,0.00,WeatherDisplay:10.37,2013-09-15 07:05:00,
2013-09-15 02:10:00,61.7,43.9,29.81,South,182,2.0,4.0,52,0.00,CLR,,0.00,WeatherDisplay:10.37,2013-09-15 07:10:00,
2013-09-15 02:15:00,61.7,43.9,29.82,South,180,0.0,2.0,52,0.00,CLR,,0.00,WeatherDisplay:10.37,2013-09-15 07:15:00,
2013-09-15 02:20:00,61.7,43.8,29.82,South,185,0.0,4.0,52,0.00,CLR,,0.00,WeatherDisplay:10.37,2013-09-15 07:20:00,
2013-09-15 02:30:00,61.7,43.9,29.82,SSW,203,1.0,7.0,52,0.00,CLR,,0.00,WeatherDisplay:10.37,2013-09-15 07:30:00,
2013-09-15 02:40:00,61.7,43.9,29.82,SSW,211,0.0,2.0,52,0.00,CLR,,0.00,WeatherDisplay:10.37,2013-09-15 07:40:00,
2013-09-15 02:50:00,61.5,43.7,29.82,SSW,212,0.0,2.0,52,0.00,CLR,,0.00,WeatherDisplay:10.37,2013-09-15 07:50:00,
2013-09-15 02:55:00,61.5,43.7,29.82,SSW,197,0.0,1.0,52,0.00,CLR,,0.00,WeatherDisplay:10.37,2013-09-15 07:55:00,
2013-09-15 03:00:00,61.5,43.7,29.82,SSW,204,0.0,1.0,52,0.00,CLR,,0.00,WeatherDisplay:10.37,2013-09-15 08:00:00,
2013-09-15 03:05:00,61.5,43.7,29.82,SSW,194,0.0,4.0,52,0.00,CLR,,0.00,WeatherDisplay:10.37,2013-09-15 08:05:00,
2013-09-15 03:10:00,61.5,43.7,29.82,SSW,199,0.0,2.0,52,0.00,CLR,,0.00,WeatherDisplay:10.37,2013-09-15 08:10:00,
2013-09-15 03:15:00,61.5,43.7,29.82,SSW,196,1.0,3.0,52,0.00,CLR,,0.00,WeatherDisplay:10.37,2013-09-15 08:15:00,
2013-09-15 03:20:00,61.5,43.7,29.82,South,176,0.0,2.0,52,0.00,CLR,,0.00,WeatherDisplay:10.37,2013-09-15 08:20:00,
2013-09-15 03:30:00,61.5,43.7,29.82,SSW,213,1.0,2.0,52,0.00,CLR,,0.00,WeatherDisplay:10.37,2013-09-15 08:30:00,
2013-09-15 03:40:00,61.3,44.1,29.82,SSW,204,0.0,3.0,53,0.00,CLR,,0.00,WeatherDisplay:10.37,2013-09-15 08:40:00,
2013-09-15 03:45:00,61.4,44.1,29.82,SSW,202,0.0,3.0,53,0.00,CLR,,0.00,WeatherDisplay:10.37,2013-09-15 08:45:00,
2013-09-15 03:50:00,61.3,44.1,29.82,SW,216,0.0,3.0,53,0.00,CLR,,0.00,WeatherDisplay:10.37,2013-09-15 08:50:00,
2013-09-15 04:00:00,61.3,44.1,29.83,SSW,206,0.0,3.0,53,0.00,CLR,,0.00,WeatherDisplay:10.37,2013-09-15 09:00:00,
2013-09-15 04:05:00,61.3,44.1,29.83,SSW,199,1.0,3.0,53,0.00,CLR,,0.00,WeatherDisplay:10.37,2013-09-15 09:05:00,
2013-09-15 04:10:00,61.3,44.0,29.83,SSW,199,0.0,3.0,53,0.00,CLR,,0.00,WeatherDisplay:10.37,2013-09-15 09:10:00,
2013-09-15 04:15:00,61.3,44.1,29.83,SW,221,0.0,2.0,53,0.00,CLR,,0.00,WeatherDisplay:10.37,2013-09-15 09:15:00,
2013-09-15 04:20:00,61.3,44.1,29.84,SW,222,0.0,5.0,53,0.00,CLR,,0.00,WeatherDisplay:10.37,2013-09-15 09:20:00,
2013-09-15 04:25:00,61.3,44.1,29.84,SW,215,0.0,5.0,53,0.00,CLR,,0.00,WeatherDisplay:10.37,2013-09-15 09:25:00,
2013-09-15 04:30:00,61.3,44.1,29.84,SSW,209,0.0,2.0,53,0.00,CLR,,0.00,WeatherDisplay:10.37,2013-09-15 09:30:00,
2013-09-15 04:35:00,61.3,44.1,29.84,SSW,205,2.0,8.0,53,0.00,CLR,,0.00,WeatherDisplay:10.37,2013-09-15 09:35:00,
2013-09-15 04:40:00,61.3,44.1,29.84,SSW,206,1.0,5.0,53,0.00,CLR,,0.00,WeatherDisplay:10.37,2013-09-15 09:40:00,
2013-09-15 04:50:00,61.3,44.1,29.84,SSW,193,0.0,2.0,53,0.00,CLR,,0.00,WeatherDisplay:10.37,2013-09-15 09:50:00,
2013-09-15 04:55:00,61.2,44.5,29.83,South,182,0.0,0.0,54,0.00,CLR,,0.00,WeatherDisplay:10.37,2013-09-15 09:55:00,
2013-09-15 05:00:00,61.2,44.4,29.82,South,172,1.0,3.0,54,0.00,CLR,,0.00,WeatherDisplay:10.37,2013-09-15 10:00:00,
2013-09-15 05:05:00,61.2,44.4,29.82,South,178,0.0,2.0,54,0.00,BKN,,0.00,WeatherDisplay:10.37,2013-09-15 10:05:00,
2013-09-15 05:10:00,61.0,45.2,29.82,South,190,0.0,0.0,56,0.00,BKN,,0.00,WeatherDisplay:10.37,2013-09-15 10:10:00,
2013-09-15 05:15:00,61.0,45.6,29.82,South,181,0.0,0.0,57,0.02,RA,,0.02,WeatherDisplay:10.37,2013-09-15 10:15:00,
2013-09-15 05:20:00,60.6,46.2,29.82,South,170,0.0,0.0,59,0.02,RA,,0.04,WeatherDisplay:10.37,2013-09-15 10:20:00,
2013-09-15 05:30:00,59.7,46.7,29.83,SW,223,0.0,0.0,62,0.00,RA,,0.06,WeatherDisplay:10.37,2013-09-15 10:30:00,
2013-09-15 05:35:00,59.5,46.9,29.83,SW,223,0.0,0.0,63,0.02,RA,,0.08,WeatherDisplay:10.37,2013-09-15 10:35:00,
2013-09-15 05:40:00,59.0,47.3,29.83,SW,233,0.0,0.0,65,0.02,RA,,0.10,WeatherDisplay:10.37,2013-09-15 10:40:00,
2013-09-15 05:50:00,58.3,47.4,29.83,WSW,248,0.0,0.0,67,0.00,RA,,0.12,WeatherDisplay:10.37,2013-09-15 10:50:00,
2013-09-15 06:00:00,57.9,47.8,29.84,SW,223,0.0,2.0,69,0.00,RA,,0.14,WeatherDisplay:10.37,2013-09-15 11:00:00,
2013-09-15 06:05:00,57.7,47.6,29.84,SW,215,0.0,2.0,69,0.00,-RA,,0.14,WeatherDisplay:10.37,2013-09-15 11:05:00,
2013-09-15 06:10:00,57.6,47.8,29.84,WSW,238,0.0,0.0,70,0.00,-RA,,0.14,WeatherDisplay:10.37,2013-09-15 11:10:00,
2013-09-15 06:15:00,57.3,48.0,29.84,West,269,0.0,0.0,71,0.00,-RA,,0.14,WeatherDisplay:10.37,2013-09-15 11:15:00,
2013-09-15 06:20:00,57.0,47.7,29.84,WSW,253,0.0,0.0,71,0.00,-RA,,0.14,WeatherDisplay:10.37,2013-09-15 11:20:00,
2013-09-15 06:30:00,56.9,48.0,29.84,SSW,203,0.0,0.0,72,0.00,-RA,,0.14,WeatherDisplay:10.37,2013-09-15 11:30:00,
2013-09-15 06:40:00,57.0,48.4,29.84,SW,220,0.0,2.0,73,0.00,-RA,,0.14,WeatherDisplay:10.37,2013-09-15 11:40:00,
2013-09-15 06:45:00,56.8,48.3,29.84,SSW,193,0.0,2.0,73,0.00,-RA,,0.14,WeatherDisplay:10.37,2013-09-15 11:45:00,
2013-09-15 06:50:00,56.8,48.6,29.84,South,189,1.0,3.0,74,0.00,-RA,,0.14,WeatherDisplay:10.37,2013-09-15 11:50:00,
2013-09-15 07:00:00,56.8,49.0,29.84,SSW,192,1.0,5.0,75,0.00,-RA,,0.14,WeatherDisplay:10.37,2013-09-15 12:00:00,
2013-09-15 07:05:00,56.8,49.0,29.84,SSW,199,1.0,3.0,75,0.00,OVC,,0.14,WeatherDisplay:10.37,2013-09-15 12:05:00,
2013-09-15 07:10:00,56.9,49.1,29.83,SSW,212,0.0,0.0,75,0.00,OVC,,0.14,WeatherDisplay:10.37,2013-09-15 12:10:00,
2013-09-15 07:15:00,57.0,49.2,29.83,SW,221,0.0,0.0,75,0.00,OVC,,0.14,WeatherDisplay:10.37,2013-09-15 12:15:00,
2013-09-15 07:20:00,57.0,49.5,29.83,SSW,210,0.0,3.0,76,0.00,OVC,,0.14,WeatherDisplay:10.37,2013-09-15 12:20:00,
2013-09-15 07:30:00,57.0,49.5,29.83,South,179,0.0,4.0,76,0.00,OVC,,0.14,WeatherDisplay:10.37,2013-09-15 12:30:00,
2013-09-15 07:40:00,57.2,49.7,29.82,SSW,199,0.0,1.0,76,0.00,OVC,,0.14,WeatherDisplay:10.37,2013-09-15 12:40:00,
2013-09-15 07:50:00,57.1,50.0,29.81,South,185,1.0,7.0,77,0.00,OVC,,0.14,WeatherDisplay:10.37,2013-09-15 12:50:00,
2013-09-15 08:00:00,57.0,49.9,29.82,South,177,0.0,0.0,77,0.00,OVC,,0.14,WeatherDisplay:10.37,2013-09-15 13:00:00,
2013-09-15 08:05:00,57.0,49.9,29.82,South,183,0.0,0.0,77,0.00,OVC,,0.14,WeatherDisplay:10.37,2013-09-15 13:05:00,
2013-09-15 08:10:00,57.2,50.1,29.82,South,176,0.0,2.0,77,0.00,OVC,,0.14,WeatherDisplay:10.37,2013-09-15 13:10:00,
2013-09-15 08:15:00,57.4,50.6,29.82,South,172,0.0,2.0,78,0.00,OVC,,0.14,WeatherDisplay:10.37,2013-09-15 13:15:00,
2013-09-15 08:20:00,57.4,50.6,29.82,SSE,161,0.0,2.0,78,0.00,OVC,,0.14,WeatherDisplay:10.37,2013-09-15 13:20:00,
2013-09-15 08:25:00,57.4,50.6,29.82,SSE,161,0.0,2.0,78,0.00,OVC,,0.14,WeatherDisplay:10.37,2013-09-15 13:25:00,
2013-09-15 08:30:00,57.4,50.2,29.82,SSE,165,1.0,2.0,77,0.00,OVC,,0.14,WeatherDisplay:10.37,2013-09-15 13:30:00,
2013-09-15 08:40:00,57.3,50.5,29.83,South,187,0.0,5.0,78,0.00,OVC,,0.14,WeatherDisplay:10.37,2013-09-15 13:40:00,
2013-09-15 08:45:00,57.4,50.6,29.83,South,181,0.0,2.0,78,0.00,OVC,,0.14,WeatherDisplay:10.37,2013-09-15 13:45:00,
2013-09-15 08:50:00,57.4,50.6,29.83,South,173,1.0,3.0,78,0.00,OVC,,0.14,WeatherDisplay:10.37,2013-09-15 13:50:00,
2013-09-15 09:00:00,57.6,50.8,29.83,South,171,0.0,3.0,78,0.00,OVC,,0.14,WeatherDisplay:10.37,2013-09-15 14:00:00,
2013-09-15 09:05:00,57.6,50.8,29.83,South,176,0.0,4.0,78,0.02,-RA,,0.16,WeatherDisplay:10.37,2013-09-15 14:05:00,
2013-09-15 09:10:00,57.7,51.2,29.83,South,188,0.0,1.0,79,0.00,-RA,,0.16,WeatherDisplay:10.37,2013-09-15 14:10:00,
2013-09-15 09:15:00,57.7,51.3,29.83,SSW,207,0.0,0.0,79,0.00,-RA,,0.16,WeatherDisplay:10.37,2013-09-15 14:15:00,
2013-09-15 09:20:00,57.7,51.3,29.83,SSW,201,0.0,3.0,79,0.00,-RA,,0.16,WeatherDisplay:10.37,2013-09-15 14:20:00,
2013-09-15 09:30:00,57.9,51.4,29.83,South,188,0.0,3.0,79,0.02,-RA,,0.18,WeatherDisplay:10.37,2013-09-15 14:30:00,
2013-09-15 09:40:00,57.9,51.4,29.82,South,174,0.0,3.0,79,0.00,-RA,,0.18,WeatherDisplay:10.37,2013-09-15 14:40:00,
2013-09-15 09:50:00,58.0,51.9,29.82,South,179,2.0,5.0,80,0.00,-RA,,0.18,WeatherDisplay:10.37,2013-09-15 14:50:00,
2013-09-15 10:00:00,57.9,51.8,29.82,South,173,1.0,5.0,80,0.00,-RA,,0.18,WeatherDisplay:10.37,2013-09-15 15:00:00,
2013-09-15 10:10:00,57.9,51.8,29.82,South,186,0.0,5.0,80,0.00,-RA,,0.18,WeatherDisplay:10.37,2013-09-15 15:10:00,
2013-09-15 10:15:00,58.1,52.0,29.82,South,182,0.0,3.0,80,0.00,-RA,,0.18,WeatherDisplay:10.37,2013-09-15 15:15:00,
2013-09-15 10:20:00,58.2,52.0,29.81,SSE,162,1.0,3.0,80,0.00,-RA,,0.18,WeatherDisplay:10.37,2013-09-15 15:20:00,
2013-09-15 10:25:00,58.3,52.1,29.82,SSE,163,0.0,3.0,80,0.00,-RA,,0.18,WeatherDisplay:10.37,2013-09-15 15:25:00,
2013-09-15 10:30:00,58.3,52.1,29.82,South,182,0.0,0.0,80,0.00,-RA,,0.18,WeatherDisplay:10.37,2013-09-15 15:30:00,
2013-09-15 10:40:00,58.5,52.3,29.82,SSE,167,0.0,6.0,80,0.00,-RA,,0.18,WeatherDisplay:10.37,2013-09-15 15:40:00,
2013-09-15 10:50:00,58.5,52.3,29.82,South,169,1.0,2.0,80,0.00,-RA,,0.20,WeatherDisplay:10.37,2013-09-15 15:50:00,
2013-09-15 11:00:00,58.4,52.3,29.82,SSE,166,1.0,3.0,80,0.00,-RA,,0.20,WeatherDisplay:10.37,2013-09-15 16:00:00,
2013-09-15 11:05:00,58.3,52.5,29.82,South,171,0.0,3.0,81,0.00,-RA,,0.20,WeatherDisplay:10.37,2013-09-15 16:05:00,
2013-09-15 11:10:00,58.3,52.5,29.82,South,177,0.0,4.0,81,0.02,-RA,,0.22,WeatherDisplay:10.37,2013-09-15 16:10:00,
2013-09-15 11:15:00,58.3,52.5,29.83,SSE,151,0.0,2.0,81,0.02,-RA,,0.24,WeatherDisplay:10.37,2013-09-15 16:15:00,
2013-09-15 11:20:00,58.4,52.5,29.83,SSE,154,0.0,2.0,81,0.02,-RA,,0.26,WeatherDisplay:10.37,2013-09-15 16:20:00,
2013-09-15 11:25:00,58.3,52.5,29.82,SSE,160,0.0,3.0,81,0.02,-RA,,0.28,WeatherDisplay:10.37,2013-09-15 16:25:00,
2013-09-15 11:30:00,58.3,52.5,29.83,SSE,158,0.0,2.0,81,0.00,-RA,,0.28,WeatherDisplay:10.37,2013-09-15 16:30:00,
2013-09-15 11:40:00,58.3,52.5,29.82,SSE,159,1.0,3.0,81,0.00,OVC,,0.28,WeatherDisplay:10.37,2013-09-15 16:40:00,
2013-09-15 11:50:00,58.2,52.7,29.82,SSE,160,1.0,5.0,82,0.00,-RA,,0.28,WeatherDisplay:10.37,2013-09-15 16:50:00,
2013-09-15 11:55:00,58.2,52.7,29.82,SSE,164,1.0,5.0,82,0.00,-RA,,0.28,WeatherDisplay:10.37,2013-09-15 16:55:00,
2013-09-15 12:00:00,58.1,52.6,29.82,South,175,1.0,5.0,82,0.00,-RA,,0.28,WeatherDisplay:10.37,2013-09-15 17:00:00,
2013-09-15 12:10:00,58.2,52.7,29.82,SSE,161,0.0,4.0,82,0.00,-RA,,0.28,WeatherDisplay:10.37,2013-09-15 17:10:00,
2013-09-15 12:20:00,58.6,53.5,29.82,SSE,166,1.0,6.0,83,0.00,-RA,,0.28,WeatherDisplay:10.37,2013-09-15 17:20:00,
2013-09-15 12:30:00,58.6,53.5,29.82,SSE,162,3.0,8.0,83,0.00,-RA,,0.28,WeatherDisplay:10.37,2013-09-15 17:30:00,
2013-09-15 12:35:00,58.8,53.7,29.82,SSE,164,1.0,6.0,83,0.00,-RA,,0.28,WeatherDisplay:10.37,2013-09-15 17:35:00,
2013-09-15 12:40:00,59.0,54.2,29.81,SSE,163,3.0,4.0,84,0.02,-RA,,0.30,WeatherDisplay:10.37,2013-09-15 17:40:00,
2013-09-15 12:50:00,59.2,54.3,29.81,SSE,165,1.0,4.0,84,0.00,-RA,,0.30,WeatherDisplay:10.37,2013-09-15 17:50:00,
2013-09-15 12:55:00,59.3,54.4,29.81,SSE,161,1.0,5.0,84,0.00,-RA,,0.30,WeatherDisplay:10.37,2013-09-15 17:55:00,
2013-09-15 13:00:00,59.3,54.5,29.81,SSE,163,2.0,5.0,84,0.00,-RA,,0.30,WeatherDisplay:10.37,2013-09-15 18:00:00,
2013-09-15 13:05:00,59.5,54.7,29.81,SSE,163,0.0,5.0,84,0.00,-RA,,0.30,WeatherDisplay:10.37,2013-09-15 18:05:00,
2013-09-15 13:10:00,59.7,54.8,29.81,SSE,162,1.0,5.0,84,0.00,-RA,,0.30,WeatherDisplay:10.37,2013-09-15 18:10:00,
2013-09-15 13:15:00,59.7,54.9,29.82,South,170,0.0,2.0,84,0.02,-RA,,0.32,WeatherDisplay:10.37,2013-09-15 18:15:00,
2013-09-15 13:20:00,59.7,54.9,29.82,South,177,1.0,2.0,84,0.06,-RA,,0.38,WeatherDisplay:10.37,2013-09-15 18:20:00,
2013-09-15 13:30:00,59.7,54.9,29.82,SSW,212,0.0,2.0,84,0.00,-RA,,0.41,WeatherDisplay:10.37,2013-09-15 18:30:00,
2013-09-15 13:40:00,59.6,54.8,29.82,South,189,0.0,0.0,84,0.00,-RA,,0.43,WeatherDisplay:10.37,2013-09-15 18:40:00,
2013-09-15 13:50:00,59.8,55.0,29.82,South,188,1.0,4.0,84,0.04,-RA,,0.49,WeatherDisplay:10.37,2013-09-15 18:50:00,
2013-09-15 14:00:00,59.5,54.7,29.81,South,171,2.0,6.0,84,0.04,-RA,,0.55,WeatherDisplay:10.37,2013-09-15 19:00:00,
2013-09-15 14:05:00,59.5,54.7,29.81,South,182,1.0,5.0,84,0.04,RA,,0.59,WeatherDisplay:10.37,2013-09-15 19:05:00,
2013-09-15 14:10:00,59.5,54.7,29.81,South,173,2.0,5.0,84,0.02,RA,,0.61,WeatherDisplay:10.37,2013-09-15 19:10:00,
2013-09-15 14:15:00,59.4,54.5,29.81,SSE,166,1.0,8.0,84,0.00,RA,,0.61,WeatherDisplay:10.37,2013-09-15 19:15:00,
2013-09-15 14:20:00,59.4,54.6,29.80,South,171,3.0,8.0,84,0.00,OVC,,0.61,WeatherDisplay:10.37,2013-09-15 19:20:00,
2013-09-15 14:30:00,59.4,54.5,29.80,SSE,160,1.0,4.0,84,0.02,RA,,0.63,WeatherDisplay:10.37,2013-09-15 19:30:00,
2013-09-15 14:35:00,59.4,54.6,29.81,SSE,161,1.0,5.0,84,0.00,-RA,,0.63,WeatherDisplay:10.37,2013-09-15 19:35:00,
2013-09-15 14:40:00,59.4,54.5,29.81,SSW,197,0.0,5.0,84,0.02,-RA,,0.65,WeatherDisplay:10.37,2013-09-15 19:40:00,
2013-09-15 14:50:00,59.2,54.3,29.81,WSW,251,0.0,0.0,84,0.00,OVC,,0.65,WeatherDisplay:10.37,2013-09-15 19:50:00,
2013-09-15 15:00:00,59.0,54.2,29.82,WNW,283,0.0,0.0,84,0.02,RA,,0.67,WeatherDisplay:10.37,2013-09-15 20:00:00,
2013-09-15 15:05:00,59.0,54.2,29.82,WNW,289,0.0,0.0,84,0.00,-RA,,0.67,WeatherDisplay:10.37,2013-09-15 20:05:00,
2013-09-15 15:10:00,59.0,54.2,29.82,West,273,0.0,0.0,84,0.00,-RA,,0.67,WeatherDisplay:10.37,2013-09-15 20:10:00,
2013-09-15 15:15:00,59.2,54.3,29.82,West,264,0.0,0.0,84,0.00,-RA,,0.67,WeatherDisplay:10.37,2013-09-15 20:15:00,
2013-09-15 15:20:00,59.2,54.3,29.82,West,265,0.0,0.0,84,0.00,-RA,,0.67,WeatherDisplay:10.37,2013-09-15 20:20:00,
2013-09-15 15:30:00,59.2,54.3,29.82,West,271,0.0,1.0,84,0.00,-RA,,0.67,WeatherDisplay:10.37,2013-09-15 20:30:00,
2013-09-15 15:40:00,59.2,54.3,29.82,West,260,0.0,0.0,84,0.00,-RA,,0.67,WeatherDisplay:10.37,2013-09-15 20:40:00,
2013-09-15 15:45:00,59.2,54.3,29.82,WSW,240,0.0,0.0,84,0.00,-RA,,0.67,WeatherDisplay:10.37,2013-09-15 20:45:00,
2013-09-15 15:50:00,59.2,54.3,29.83,West,261,0.0,0.0,84,0.00,-RA,,0.67,WeatherDisplay:10.37,2013-09-15 20:50:00,
2013-09-15 16:00:00,59.2,54.3,29.83,West,276,0.0,0.0,84,0.02,-RA,,0.69,WeatherDisplay:10.37,2013-09-15 21:00:00,
2013-09-15 16:05:00,59.4,54.5,29.83,WNW,293,0.0,0.0,84,0.00,-RA,,0.69,WeatherDisplay:10.37,2013-09-15 21:05:00,
2013-09-15 16:10:00,59.3,54.8,29.83,WNW,293,0.0,0.0,85,0.00,-RA,,0.69,WeatherDisplay:10.37,2013-09-15 21:10:00,
2013-09-15 16:15:00,59.5,55.0,29.83,West,263,0.0,0.0,85,0.00,-RA,,0.69,WeatherDisplay:10.37,2013-09-15 21:15:00,
2013-09-15 16:20:00,59.5,55.0,29.83,WSW,242,0.0,0.0,85,0.00,-RA,,0.69,WeatherDisplay:10.37,2013-09-15 21:20:00,
2013-09-15 16:30:00,59.7,54.9,29.83,WSW,241,0.0,0.0,84,0.00,-RA,,0.69,WeatherDisplay:10.37,2013-09-15 21:30:00,
2013-09-15 16:40:00,60.1,55.2,29.83,WSW,246,0.0,2.0,84,0.00,-RA,,0.69,WeatherDisplay:10.37,2013-09-15 21:40:00,
2013-09-15 16:50:00,60.4,55.6,29.83,WSW,245,0.0,0.0,84,0.00,-RA,,0.69,WeatherDisplay:10.37,2013-09-15 21:50:00,
2013-09-15 17:00:00,60.4,55.6,29.84,West,262,0.0,0.0,84,0.00,-RA,,0.69,WeatherDisplay:10.37,2013-09-15 22:00:00,
2013-09-15 17:05:00,60.4,55.5,29.84,West,271,0.0,0.0,84,0.00,OVC,,0.69,WeatherDisplay:10.37,2013-09-15 22:05:00,
2013-09-15 17:10:00,60.4,55.5,29.84,WSW,258,0.0,0.0,84,0.00,OVC,,0.69,WeatherDisplay:10.37,2013-09-15 22:10:00,
2013-09-15 17:15:00,60.4,55.6,29.84,West,262,0.0,0.0,84,0.00,OVC,,0.69,WeatherDisplay:10.37,2013-09-15 22:15:00,
2013-09-15 17:20:00,60.4,55.6,29.84,West,278,0.0,0.0,84,0.00,OVC,,0.69,WeatherDisplay:10.37,2013-09-15 22:20:00,
2013-09-15 17:30:00,60.3,55.4,29.84,WNW,298,0.0,0.0,84,0.00,OVC,,0.69,WeatherDisplay:10.37,2013-09-15 22:30:00,
2013-09-15 17:40:00,60.1,55.3,29.84,NNW,327,0.0,0.0,84,0.00,OVC,,0.69,WeatherDisplay:10.37,2013-09-15 22:40:00,
2013-09-15 17:50:00,60.1,55.2,29.85,WNW,298,0.0,0.0,84,0.00,OVC,,0.69,WeatherDisplay:10.37,2013-09-15 22:50:00,
2013-09-15 18:00:00,60.1,55.2,29.85,WNW,283,0.0,0.0,84,0.00,OVC,,0.69,WeatherDisplay:10.37,2013-09-15 23:00:00,
2013-09-15 18:05:00,59.9,55.1,29.85,WNW,298,0.0,0.0,84,0.00,OVC,,0.69,WeatherDisplay:10.37,2013-09-15 23:05:00,
2013-09-15 18:10:00,59.9,55.1,29.85,WNW,303,0.0,2.0,84,0.00,OVC,,0.69,WeatherDisplay:10.37,2013-09-15 23:10:00,
2013-09-15 18:15:00,59.9,55.1,29.85,West,279,0.0,0.0,84,0.00,OVC,,0.69,WeatherDisplay:10.37,2013-09-15 23:15:00,
2013-09-15 18:20:00,59.9,55.1,29.85,WNW,282,0.0,0.0,84,0.00,OVC,,0.69,WeatherDisplay:10.37,2013-09-15 23:20:00,
2013-09-15 18:30:00,60.1,55.6,29.85,WSW,246,0.0,2.0,85,0.00,OVC,,0.69,WeatherDisplay:10.37,2013-09-15 23:30:00,
2013-09-15 18:40:00,60.0,55.5,29.86,NW,315,0.0,0.0,85,0.00,OVC,,0.69,WeatherDisplay:10.37,2013-09-15 23:40:00,
2013-09-15 18:45:00,60.1,55.6,29.86,NNW,327,0.0,0.0,85,0.00,OVC,,0.69,WeatherDisplay:10.37,2013-09-15 23:45:00,
2013-09-15 18:50:00,60.1,55.6,29.85,NNW,327,2.0,8.0,85,0.00,-RA,,0.69,WeatherDisplay:10.37,2013-09-15 23:50:00,
2013-09-15 19:00:00,60.4,56.2,29.86,NNE,27,7.0,10.0,86,0.00,-RA,,0.69,WeatherDisplay:10.37,2013-09-16 00:00:00,
2013-09-15 19:05:00,60.6,56.4,29.86,NNE,24,8.0,10.0,86,0.00,OVC,,0.69,WeatherDisplay:10.37,2013-09-16 00:05:00,
2013-09-15 19:10:00,60.6,56.4,29.86,North,9,6.0,12.0,86,0.00,OVC,,0.69,WeatherDisplay:10.37,2013-09-16 00:10:00,
2013-09-15 19:15:00,60.6,56.4,29.87,North,6,7.0,10.0,86,0.00,OVC,,0.69,WeatherDisplay:10.37,2013-09-16 00:15:00,
2013-09-15 19:20:00,60.6,56.4,29.87,North,10,7.0,9.0,86,0.00,OVC,,0.69,WeatherDisplay:10.37,2013-09-16 00:20:00,
2013-09-15 19:30:00,60.6,56.4,29.87,NNE,28,2.0,8.0,86,0.00,OVC,,0.69,WeatherDisplay:10.37,2013-09-16 00:30:00,
2013-09-15 19:40:00,61.0,56.8,29.88,NE,34,3.0,12.0,86,0.00,OVC,,0.69,WeatherDisplay:10.37,2013-09-16 00:40:00,
2013-09-15 19:50:00,61.0,56.8,29.89,NNE,22,7.0,13.0,86,0.00,OVC,,0.69,WeatherDisplay:10.37,2013-09-16 00:50:00,
2013-09-15 20:00:00,61.1,56.9,29.89,NNE,23,6.0,15.0,86,0.00,OVC,,0.69,WeatherDisplay:10.37,2013-09-16 01:00:00,
2013-09-15 20:05:00,61.2,56.6,29.89,NNE,19,9.0,15.0,85,0.00,OVC,,0.69,WeatherDisplay:10.37,2013-09-16 01:05:00,
2013-09-15 20:10:00,61.3,56.8,29.90,NNE,27,7.0,11.0,85,0.00,OVC,,0.69,WeatherDisplay:10.37,2013-09-16 01:10:00,
2013-09-15 20:15:00,61.3,56.8,29.90,NNE,32,8.0,12.0,85,0.00,OVC,,0.69,WeatherDisplay:10.37,2013-09-16 01:15:00,
2013-09-15 20:20:00,61.3,56.5,29.90,NNE,27,8.0,12.0,84,0.00,OVC,,0.69,WeatherDisplay:10.37,2013-09-16 01:20:00,
2013-09-15 20:25:00,61.3,56.5,29.90,NNE,21,7.0,12.0,84,0.00,OVC,,0.69,WeatherDisplay:10.37,2013-09-16 01:25:00,
2013-09-15 20:30:00,61.4,56.6,29.91,NNE,15,2.0,8.0,84,0.00,OVC,,0.69,WeatherDisplay:10.37,2013-09-16 01:30:00,
2013-09-15 20:35:00,61.5,56.6,29.91,NNE,21,7.0,12.0,84,0.00,OVC,,0.69,WeatherDisplay:10.37,2013-09-16 01:35:00,
2013-09-15 20:40:00,61.5,56.3,29.91,NNE,19,3.0,8.0,83,0.00,OVC,,0.69,WeatherDisplay:10.37,2013-09-16 01:40:00,
2013-09-15 20:50:00,61.5,56.3,29.91,NNE,23,5.0,12.0,83,0.00,OVC,,0.69,WeatherDisplay:10.37,2013-09-16 01:50:00,
2013-09-15 21:00:00,61.5,56.0,29.92,NNE,19,5.0,11.0,82,0.00,OVC,,0.69,WeatherDisplay:10.37,2013-09-16 02:00:00,
2013-09-15 21:05:00,61.5,56.0,29.92,North,8,6.0,10.0,82,0.00,BKN,,0.69,WeatherDisplay:10.37,2013-09-16 02:05:00,
2013-09-15 21:10:00,61.5,56.0,29.92,North,7,7.0,14.0,82,0.00,BKN,,0.69,WeatherDisplay:10.37,2013-09-16 02:10:00,
2013-09-15 21:20:00,61.3,55.5,29.92,NNE,19,5.0,11.0,81,0.00,BKN,,0.69,WeatherDisplay:10.37,2013-09-16 02:20:00,
2013-09-15 21:25:00,61.3,55.5,29.92,NNE,18,5.0,15.0,81,0.00,BKN,,0.69,WeatherDisplay:10.37,2013-09-16 02:25:00,
2013-09-15 21:30:00,61.2,55.3,29.93,NNE,21,5.0,11.0,81,0.00,BKN,,0.69,WeatherDisplay:10.37,2013-09-16 02:30:00,
2013-09-15 21:40:00,61.2,54.9,29.92,NNE,21,3.0,9.0,80,0.00,BKN,,0.69,WeatherDisplay:10.37,2013-09-16 02:40:00,
2013-09-15 21:50:00,61.2,54.6,29.93,NNE,23,7.0,11.0,79,0.00,BKN,,0.69,WeatherDisplay:10.37,2013-09-16 02:50:00,
2013-09-15 22:00:00,61.3,55.1,29.94,NNE,27,5.0,10.0,80,0.00,BKN,,0.69,WeatherDisplay:10.37,2013-09-16 03:00:00,
2013-09-15 22:05:00,61.5,55.3,29.94,NNE,27,2.0,10.0,80,0.00,SCT,,0.69,WeatherDisplay:10.37,2013-09-16 03:05:00,
2013-09-15 22:10:00,61.5,55.6,29.94,NNE,30,7.0,16.0,81,0.00,SCT,,0.69,WeatherDisplay:10.37,2013-09-16 03:10:00,
2013-09-15 22:15:00,61.5,56.3,29.94,North,11,9.0,16.0,83,0.00,SCT,,0.69,WeatherDisplay:10.37,2013-09-16 03:15:00,
2013-09-15 22:20:00,61.2,56.0,29.95,NNE,16,6.0,19.0,83,0.00,SCT,,0.69,WeatherDisplay:10.37,2013-09-16 03:20:00,
2013-09-15 22:25:00,61.0,56.1,29.95,NNE,32,5.0,9.0,84,0.02,RA,,0.71,WeatherDisplay:10.37,2013-09-16 03:25:00,
2013-09-15 22:30:00,60.6,56.1,29.95,NE,34,5.0,10.0,85,0.00,RA,,0.71,WeatherDisplay:10.37,2013-09-16 03:30:00,
2013-09-15 22:40:00,60.2,55.7,29.95,NNE,22,3.0,11.0,85,0.02,RA,,0.73,WeatherDisplay:10.37,2013-09-16 03:40:00,
2013-09-15 22:50:00,60.3,55.7,29.95,NNE,30,6.0,14.0,85,0.00,OVC,,0.73,WeatherDisplay:10.37,2013-09-16 03:50:00,
2013-09-15 23:00:00,60.4,55.6,29.95,North,11,6.0,20.0,84,0.00,OVC,,0.73,WeatherDisplay:10.37,2013-09-16 04:00:00,
2013-09-15 23:05:00,60.6,55.4,29.95,NNE,13,9.0,20.0,83,0.00,OVC,,0.73,WeatherDisplay:10.37,2013-09-16 04:05:00,
2013-09-15 23:10:00,60.6,55.1,29.96,NNE,19,8.0,16.0,82,0.00,OVC,,0.73,WeatherDisplay:10.37,2013-09-16 04:10:00,
2013-09-15 23:20:00,60.6,55.0,29.96,NNE,15,12.0,16.0,82,0.00,OVC,,0.73,WeatherDisplay:10.37,2013-09-16 04:20:00,
2013-09-15 23:25:00,60.8,54.9,29.96,NNE,19,7.0,14.0,81,0.00,OVC,,0.73,WeatherDisplay:10.37,2013-09-16 04:25:00,
2013-09-15 23:30:00,60.6,54.4,29.97,NNE,20,7.0,17.0,80,0.00,OVC,,0.73,WeatherDisplay:10.37,2013-09-16 04:30:00,
2013-09-15 23:35:00,60.5,54.3,29.97,North,11,3.0,12.0,80,0.00,OVC,,0.73,WeatherDisplay:10.37,2013-09-16 04:35:00,
2013-09-15 23:40:00,60.4,54.2,29.97,NNE,19,7.0,14.0,80,0.00,OVC,,0.73,WeatherDisplay:10.37,2013-09-16 04:40:00,
2013-09-15 23:45:00,60.4,54.2,29.97,North,10,8.0,15.0,80,0.00,OVC,,0.73,WeatherDisplay:10.37,2013-09-16 04:45:00,
2013-09-15 23:50:00,60.4,54.2,29.98,North,2,10.0,15.0,80,0.00,OVC,,0.73,WeatherDisplay:10.37,2013-09-16 04:50:00,